sensor_id;sensor_type;location;lat;lon;timestamp;P1;durP1;ratioP1;P2;durP2;ratioP2
39322;SDS011;25036;53.638;10.134;2023-08-06T00:00:24;3.40;;;1.70;;
39322;SDS011;25036;53.638;10.134;2023-08-06T00:01:24;1.80;;;1.67;;
39322;SDS011;25036;53.638;10.134;2023-08-06T00:02:25;3.65;;;1.80;;
39322;SDS011;25036;53.638;10.134;2023-08-06T00:03:25;2.00;;;1.50;;
39322;SDS011;25036;53.638;10.134;2023-08-06T00:04:25;2.17;;;1.50;;
39322;SDS011;25036;53.638;10.134;2023-08-06T00:05:26;3.00;;;1.63;;
39322;SDS011;25036;53.638;10.134;2023-08-06T00:06:26;2.33;;;1.87;;
39322;SDS011;25036;53.638;10.134;2023-08-06T00:07:26;2.57;;;1.57;;
39322;SDS011;25036;53.638;10.134;2023-08-06T00:08:26;1.90;;;1.80;;
39322;SDS011;25036;53.638;10.134;2023-08-06T00:09:26;2.70;;;1.92;;
39322;SDS011;25036;53.638;10.134;2023-08-06T00:10:26;1.87;;;1.67;;
39322;SDS011;25036;53.638;10.134;2023-08-06T00:11:27;3.07;;;1.77;;
39322;SDS011;25036;53.638;10.134;2023-08-06T00:12:27;2.30;;;1.87;;
39322;SDS011;25036;53.638;10.134;2023-08-06T00:13:27;1.77;;;1.60;;
39322;SDS011;25036;53.638;10.134;2023-08-06T00:14:27;1.70;;;1.60;;
39322;SDS011;25036;53.638;10.134;2023-08-06T00:15:27;2.00;;;1.70;;
39322;SDS011;25036;53.638;10.134;2023-08-06T00:16:27;2.00;;;1.80;;
39322;SDS011;25036;53.638;10.134;2023-08-06T00:17:27;3.87;;;2.30;;
39322;SDS011;25036;53.638;10.134;2023-08-06T00:18:28;4.68;;;2.00;;
39322;SDS011;25036;53.638;10.134;2023-08-06T00:19:28;2.50;;;1.63;;
39322;SDS011;25036;53.638;10.134;2023-08-06T00:20:28;3.00;;;1.90;;
39322;SDS011;25036;53.638;10.134;2023-08-06T00:21:28;3.37;;;1.80;;
39322;SDS011;25036;53.638;10.134;2023-08-06T00:22:28;2.57;;;1.93;;
39322;SDS011;25036;53.638;10.134;2023-08-06T00:23:28;1.70;;;1.60;;
39322;SDS011;25036;53.638;10.134;2023-08-06T00:24:28;2.63;;;1.43;;
39322;SDS011;25036;53.638;10.134;2023-08-06T00:25:29;1.90;;;1.70;;
39322;SDS011;25036;53.638;10.134;2023-08-06T00:26:29;2.67;;;1.73;;
39322;SDS011;25036;53.638;10.134;2023-08-06T00:27:29;2.80;;;1.73;;
39322;SDS011;25036;53.638;10.134;2023-08-06T00:28:29;3.03;;;1.80;;
39322;SDS011;25036;53.638;10.134;2023-08-06T00:29:29;4.10;;;2.10;;
39322;SDS011;25036;53.638;10.134;2023-08-06T00:30:29;6.00;;;2.03;;
39322;SDS011;25036;53.638;10.134;2023-08-06T00:31:31;2.97;;;1.70;;
39322;SDS011;25036;53.638;10.134;2023-08-06T00:32:31;2.10;;;1.80;;
39322;SDS011;25036;53.638;10.134;2023-08-06T00:33:31;2.87;;;1.77;;
39322;SDS011;25036;53.638;10.134;2023-08-06T00:34:31;3.00;;;2.00;;
39322;SDS011;25036;53.638;10.134;2023-08-06T00:35:31;2.43;;;1.97;;
39322;SDS011;25036;53.638;10.134;2023-08-06T00:36:31;5.80;;;2.50;;
39322;SDS011;25036;53.638;10.134;2023-08-06T00:37:31;1.83;;;1.70;;
39322;SDS011;25036;53.638;10.134;2023-08-06T00:38:32;3.97;;;1.98;;
39322;SDS011;25036;53.638;10.134;2023-08-06T00:39:32;4.40;;;2.17;;
39322;SDS011;25036;53.638;10.134;2023-08-06T00:40:32;3.90;;;2.03;;
39322;SDS011;25036;53.638;10.134;2023-08-06T00:41:32;5.10;;;1.97;;
39322;SDS011;25036;53.638;10.134;2023-08-06T00:42:32;4.77;;;2.40;;
39322;SDS011;25036;53.638;10.134;2023-08-06T00:43:33;3.60;;;1.95;;
39322;SDS011;25036;53.638;10.134;2023-08-06T00:44:33;3.00;;;2.15;;
39322;SDS011;25036;53.638;10.134;2023-08-06T00:45:34;3.70;;;1.97;;
39322;SDS011;25036;53.638;10.134;2023-08-06T00:46:34;2.90;;;2.22;;
39322;SDS011;25036;53.638;10.134;2023-08-06T00:47:34;2.50;;;2.10;;
39322;SDS011;25036;53.638;10.134;2023-08-06T00:48:34;3.27;;;2.00;;
39322;SDS011;25036;53.638;10.134;2023-08-06T00:49:35;4.22;;;2.05;;
39322;SDS011;25036;53.638;10.134;2023-08-06T00:50:36;2.97;;;2.05;;
39322;SDS011;25036;53.638;10.134;2023-08-06T00:51:36;2.13;;;1.90;;
39322;SDS011;25036;53.638;10.134;2023-08-06T00:52:36;4.68;;;2.03;;
39322;SDS011;25036;53.638;10.134;2023-08-06T00:53:37;2.85;;;2.10;;
39322;SDS011;25036;53.638;10.134;2023-08-06T00:54:37;4.07;;;1.75;;
39322;SDS011;25036;53.638;10.134;2023-08-06T00:55:38;2.60;;;1.70;;
39322;SDS011;25036;53.638;10.134;2023-08-06T00:56:38;2.83;;;2.00;;
39322;SDS011;25036;53.638;10.134;2023-08-06T00:57:38;2.70;;;1.90;;
39322;SDS011;25036;53.638;10.134;2023-08-06T00:58:38;2.55;;;1.80;;
39322;SDS011;25036;53.638;10.134;2023-08-06T00:59:39;2.72;;;2.20;;
39322;SDS011;25036;53.638;10.134;2023-08-06T01:00:39;2.88;;;2.20;;
39322;SDS011;25036;53.638;10.134;2023-08-06T01:01:39;2.22;;;1.77;;
39322;SDS011;25036;53.638;10.134;2023-08-06T01:02:39;3.37;;;1.97;;
39322;SDS011;25036;53.638;10.134;2023-08-06T01:03:40;2.40;;;2.20;;
39322;SDS011;25036;53.638;10.134;2023-08-06T01:04:40;2.83;;;1.90;;
39322;SDS011;25036;53.638;10.134;2023-08-06T01:05:40;2.47;;;2.00;;
39322;SDS011;25036;53.638;10.134;2023-08-06T01:07:25;4.70;;;1.90;;
39322;SDS011;25036;53.638;10.134;2023-08-06T01:08:11;2.40;;;1.90;;
39322;SDS011;25036;53.638;10.134;2023-08-06T01:09:17;2.70;;;2.10;;
39322;SDS011;25036;53.638;10.134;2023-08-06T01:11:40;3.58;;;2.00;;
39322;SDS011;25036;53.638;10.134;2023-08-06T01:12:44;3.20;;;2.45;;
39322;SDS011;25036;53.638;10.134;2023-08-06T01:13:46;2.80;;;2.03;;
39322;SDS011;25036;53.638;10.134;2023-08-06T01:14:56;3.53;;;1.90;;
39322;SDS011;25036;53.638;10.134;2023-08-06T01:15:58;2.40;;;2.05;;
39322;SDS011;25036;53.638;10.134;2023-08-06T01:16:59;2.33;;;2.13;;
39322;SDS011;25036;53.638;10.134;2023-08-06T01:18:00;4.00;;;2.05;;
39322;SDS011;25036;53.638;10.134;2023-08-06T01:19:00;2.78;;;2.08;;
39322;SDS011;25036;53.638;10.134;2023-08-06T01:20:01;2.63;;;2.27;;
39322;SDS011;25036;53.638;10.134;2023-08-06T01:21:01;3.17;;;2.38;;
39322;SDS011;25036;53.638;10.134;2023-08-06T01:22:01;2.60;;;2.35;;
39322;SDS011;25036;53.638;10.134;2023-08-06T01:23:01;3.83;;;2.50;;
39322;SDS011;25036;53.638;10.134;2023-08-06T01:24:01;3.43;;;2.50;;
39322;SDS011;25036;53.638;10.134;2023-08-06T01:25:02;3.20;;;2.28;;
39322;SDS011;25036;53.638;10.134;2023-08-06T01:27:50;2.75;;;2.10;;
39322;SDS011;25036;53.638;10.134;2023-08-06T01:28:33;3.42;;;2.00;;
39322;SDS011;25036;53.638;10.134;2023-08-06T01:29:45;3.13;;;2.20;;
39322;SDS011;25036;53.638;10.134;2023-08-06T01:30:47;4.32;;;2.05;;
39322;SDS011;25036;53.638;10.134;2023-08-06T01:31:50;3.00;;;2.08;;
39322;SDS011;25036;53.638;10.134;2023-08-06T01:32:53;2.08;;;1.88;;
39322;SDS011;25036;53.638;10.134;2023-08-06T01:33:54;2.90;;;2.10;;
39322;SDS011;25036;53.638;10.134;2023-08-06T01:34:56;5.50;;;2.40;;
39322;SDS011;25036;53.638;10.134;2023-08-06T01:35:57;3.00;;;2.10;;
39322;SDS011;25036;53.638;10.134;2023-08-06T01:36:58;2.38;;;2.17;;
39322;SDS011;25036;53.638;10.134;2023-08-06T01:37:59;2.55;;;2.25;;
39322;SDS011;25036;53.638;10.134;2023-08-06T01:39:00;4.53;;;2.03;;
39322;SDS011;25036;53.638;10.134;2023-08-06T01:40:00;4.17;;;2.33;;
39322;SDS011;25036;53.638;10.134;2023-08-06T01:41:00;6.03;;;2.20;;
39322;SDS011;25036;53.638;10.134;2023-08-06T01:42:01;2.90;;;1.73;;
39322;SDS011;25036;53.638;10.134;2023-08-06T01:43:01;2.83;;;1.75;;
39322;SDS011;25036;53.638;10.134;2023-08-06T01:44:01;4.33;;;2.20;;
39322;SDS011;25036;53.638;10.134;2023-08-06T01:45:01;2.30;;;2.08;;
39322;SDS011;25036;53.638;10.134;2023-08-06T01:46:02;3.90;;;1.80;;
39322;SDS011;25036;53.638;10.134;2023-08-06T01:47:02;3.67;;;2.28;;
39322;SDS011;25036;53.638;10.134;2023-08-06T01:48:02;3.03;;;2.10;;
39322;SDS011;25036;53.638;10.134;2023-08-06T01:49:02;2.83;;;2.03;;
39322;SDS011;25036;53.638;10.134;2023-08-06T01:50:03;3.07;;;2.27;;
39322;SDS011;25036;53.638;10.134;2023-08-06T01:51:06;4.07;;;2.35;;
39322;SDS011;25036;53.638;10.134;2023-08-06T01:52:06;6.85;;;2.70;;
39322;SDS011;25036;53.638;10.134;2023-08-06T01:53:07;2.97;;;2.30;;
39322;SDS011;25036;53.638;10.134;2023-08-06T01:54:07;2.87;;;2.10;;
39322;SDS011;25036;53.638;10.134;2023-08-06T01:55:07;2.60;;;2.30;;
39322;SDS011;25036;53.638;10.134;2023-08-06T01:56:07;4.25;;;2.10;;
39322;SDS011;25036;53.638;10.134;2023-08-06T01:57:07;3.00;;;2.20;;
39322;SDS011;25036;53.638;10.134;2023-08-06T01:58:08;3.30;;;2.33;;
39322;SDS011;25036;53.638;10.134;2023-08-06T01:59:08;6.43;;;2.20;;
39322;SDS011;25036;53.638;10.134;2023-08-06T02:00:08;2.60;;;2.27;;
39322;SDS011;25036;53.638;10.134;2023-08-06T02:01:08;3.38;;;2.20;;
39322;SDS011;25036;53.638;10.134;2023-08-06T02:02:09;6.07;;;2.30;;
39322;SDS011;25036;53.638;10.134;2023-08-06T02:03:09;3.33;;;2.30;;
39322;SDS011;25036;53.638;10.134;2023-08-06T02:04:09;2.50;;;2.30;;
39322;SDS011;25036;53.638;10.134;2023-08-06T02:05:09;3.67;;;2.40;;
39322;SDS011;25036;53.638;10.134;2023-08-06T02:06:09;2.40;;;2.20;;
39322;SDS011;25036;53.638;10.134;2023-08-06T02:07:10;3.58;;;2.25;;
39322;SDS011;25036;53.638;10.134;2023-08-06T02:08:10;2.43;;;2.23;;
39322;SDS011;25036;53.638;10.134;2023-08-06T02:09:10;3.47;;;2.30;;
39322;SDS011;25036;53.638;10.134;2023-08-06T02:10:10;3.70;;;2.00;;
39322;SDS011;25036;53.638;10.134;2023-08-06T02:11:10;4.90;;;2.30;;
39322;SDS011;25036;53.638;10.134;2023-08-06T02:12:10;2.30;;;2.10;;
39322;SDS011;25036;53.638;10.134;2023-08-06T02:13:10;2.87;;;2.03;;
39322;SDS011;25036;53.638;10.134;2023-08-06T02:14:11;2.50;;;2.15;;
39322;SDS011;25036;53.638;10.134;2023-08-06T02:15:11;5.05;;;2.10;;
39322;SDS011;25036;53.638;10.134;2023-08-06T02:16:12;5.07;;;2.33;;
39322;SDS011;25036;53.638;10.134;2023-08-06T02:17:12;2.27;;;2.03;;
39322;SDS011;25036;53.638;10.134;2023-08-06T02:18:12;3.40;;;2.23;;
39322;SDS011;25036;53.638;10.134;2023-08-06T02:19:12;2.90;;;2.25;;
39322;SDS011;25036;53.638;10.134;2023-08-06T02:20:12;4.00;;;2.40;;
39322;SDS011;25036;53.638;10.134;2023-08-06T02:21:12;2.83;;;2.40;;
39322;SDS011;25036;53.638;10.134;2023-08-06T02:22:13;3.20;;;2.00;;
39322;SDS011;25036;53.638;10.134;2023-08-06T02:23:13;2.33;;;2.10;;
39322;SDS011;25036;53.638;10.134;2023-08-06T02:24:13;3.87;;;2.60;;
39322;SDS011;25036;53.638;10.134;2023-08-06T02:25:13;3.53;;;2.53;;
39322;SDS011;25036;53.638;10.134;2023-08-06T02:26:13;2.15;;;1.88;;
39322;SDS011;25036;53.638;10.134;2023-08-06T02:27:13;3.33;;;2.20;;
39322;SDS011;25036;53.638;10.134;2023-08-06T02:28:13;2.53;;;2.33;;
39322;SDS011;25036;53.638;10.134;2023-08-06T02:29:14;2.80;;;2.37;;
39322;SDS011;25036;53.638;10.134;2023-08-06T02:30:14;3.20;;;2.50;;
39322;SDS011;25036;53.638;10.134;2023-08-06T02:31:14;5.20;;;2.63;;
39322;SDS011;25036;53.638;10.134;2023-08-06T02:32:14;2.80;;;2.37;;
39322;SDS011;25036;53.638;10.134;2023-08-06T02:33:14;2.75;;;2.40;;
39322;SDS011;25036;53.638;10.134;2023-08-06T02:34:14;3.47;;;2.70;;
39322;SDS011;25036;53.638;10.134;2023-08-06T02:35:15;2.77;;;2.40;;
39322;SDS011;25036;53.638;10.134;2023-08-06T02:36:15;3.42;;;2.50;;
39322;SDS011;25036;53.638;10.134;2023-08-06T02:37:15;2.40;;;2.10;;
39322;SDS011;25036;53.638;10.134;2023-08-06T02:38:15;3.70;;;2.70;;
39322;SDS011;25036;53.638;10.134;2023-08-06T02:39:15;3.50;;;2.27;;
39322;SDS011;25036;53.638;10.134;2023-08-06T02:40:15;2.90;;;2.27;;
39322;SDS011;25036;53.638;10.134;2023-08-06T02:41:16;3.05;;;2.38;;
39322;SDS011;25036;53.638;10.134;2023-08-06T02:42:16;2.93;;;2.60;;
39322;SDS011;25036;53.638;10.134;2023-08-06T02:43:16;3.20;;;2.20;;
39322;SDS011;25036;53.638;10.134;2023-08-06T02:44:16;4.00;;;2.40;;
39322;SDS011;25036;53.638;10.134;2023-08-06T02:45:16;2.40;;;2.20;;
39322;SDS011;25036;53.638;10.134;2023-08-06T02:46:16;3.37;;;2.37;;
39322;SDS011;25036;53.638;10.134;2023-08-06T02:47:16;2.43;;;2.10;;
39322;SDS011;25036;53.638;10.134;2023-08-06T02:48:17;3.30;;;2.17;;
39322;SDS011;25036;53.638;10.134;2023-08-06T02:49:18;3.40;;;2.42;;
39322;SDS011;25036;53.638;10.134;2023-08-06T02:50:18;4.43;;;2.25;;
39322;SDS011;25036;53.638;10.134;2023-08-06T02:51:18;3.83;;;2.40;;
39322;SDS011;25036;53.638;10.134;2023-08-06T02:52:18;3.13;;;2.33;;
39322;SDS011;25036;53.638;10.134;2023-08-06T02:53:18;2.77;;;2.33;;
39322;SDS011;25036;53.638;10.134;2023-08-06T02:54:19;3.65;;;2.50;;
39322;SDS011;25036;53.638;10.134;2023-08-06T02:55:19;2.90;;;2.17;;
39322;SDS011;25036;53.638;10.134;2023-08-06T02:56:19;5.20;;;2.60;;
39322;SDS011;25036;53.638;10.134;2023-08-06T02:57:19;2.53;;;2.10;;
39322;SDS011;25036;53.638;10.134;2023-08-06T02:58:19;2.67;;;2.47;;
39322;SDS011;25036;53.638;10.134;2023-08-06T02:59:22;3.20;;;2.03;;
39322;SDS011;25036;53.638;10.134;2023-08-06T03:00:22;4.07;;;2.80;;
39322;SDS011;25036;53.638;10.134;2023-08-06T03:01:22;4.50;;;2.53;;
39322;SDS011;25036;53.638;10.134;2023-08-06T03:02:23;4.60;;;2.53;;
39322;SDS011;25036;53.638;10.134;2023-08-06T03:03:23;3.03;;;2.73;;
39322;SDS011;25036;53.638;10.134;2023-08-06T03:04:23;3.30;;;2.60;;
39322;SDS011;25036;53.638;10.134;2023-08-06T03:05:23;2.88;;;2.58;;
39322;SDS011;25036;53.638;10.134;2023-08-06T03:06:23;3.70;;;2.50;;
39322;SDS011;25036;53.638;10.134;2023-08-06T03:07:24;2.47;;;2.27;;
39322;SDS011;25036;53.638;10.134;2023-08-06T03:08:24;2.43;;;2.23;;
39322;SDS011;25036;53.638;10.134;2023-08-06T03:09:24;4.10;;;2.45;;
39322;SDS011;25036;53.638;10.134;2023-08-06T03:10:24;2.75;;;2.25;;
39322;SDS011;25036;53.638;10.134;2023-08-06T03:11:25;2.77;;;2.40;;
39322;SDS011;25036;53.638;10.134;2023-08-06T03:12:25;5.13;;;2.53;;
39322;SDS011;25036;53.638;10.134;2023-08-06T03:13:25;6.20;;;2.90;;
39322;SDS011;25036;53.638;10.134;2023-08-06T03:14:25;3.38;;;2.53;;
39322;SDS011;25036;53.638;10.134;2023-08-06T03:15:25;2.87;;;2.60;;
39322;SDS011;25036;53.638;10.134;2023-08-06T03:16:25;3.17;;;2.33;;
39322;SDS011;25036;53.638;10.134;2023-08-06T03:17:25;3.20;;;2.27;;
39322;SDS011;25036;53.638;10.134;2023-08-06T03:18:26;4.53;;;2.57;;
39322;SDS011;25036;53.638;10.134;2023-08-06T03:19:26;3.40;;;2.33;;
39322;SDS011;25036;53.638;10.134;2023-08-06T03:20:26;3.73;;;2.40;;
39322;SDS011;25036;53.638;10.134;2023-08-06T03:21:26;4.13;;;2.37;;
39322;SDS011;25036;53.638;10.134;2023-08-06T03:22:26;2.58;;;2.25;;
39322;SDS011;25036;53.638;10.134;2023-08-06T03:23:26;6.67;;;2.73;;
39322;SDS011;25036;53.638;10.134;2023-08-06T03:24:27;3.03;;;2.13;;
39322;SDS011;25036;53.638;10.134;2023-08-06T03:25:27;4.00;;;2.40;;
39322;SDS011;25036;53.638;10.134;2023-08-06T03:26:27;5.47;;;2.87;;
39322;SDS011;25036;53.638;10.134;2023-08-06T03:27:27;3.73;;;2.27;;
39322;SDS011;25036;53.638;10.134;2023-08-06T03:28:27;5.03;;;2.43;;
39322;SDS011;25036;53.638;10.134;2023-08-06T03:29:27;6.80;;;2.80;;
39322;SDS011;25036;53.638;10.134;2023-08-06T03:30:27;5.67;;;2.47;;
39322;SDS011;25036;53.638;10.134;2023-08-06T03:31:28;3.70;;;2.37;;
39322;SDS011;25036;53.638;10.134;2023-08-06T03:32:28;7.67;;;2.50;;
39322;SDS011;25036;53.638;10.134;2023-08-06T03:33:28;5.00;;;2.33;;
39322;SDS011;25036;53.638;10.134;2023-08-06T03:34:28;4.97;;;2.63;;
39322;SDS011;25036;53.638;10.134;2023-08-06T03:35:28;4.28;;;2.47;;
39322;SDS011;25036;53.638;10.134;2023-08-06T03:36:28;3.60;;;2.30;;
39322;SDS011;25036;53.638;10.134;2023-08-06T03:37:29;4.95;;;2.90;;
39322;SDS011;25036;53.638;10.134;2023-08-06T03:38:29;2.73;;;2.20;;
39322;SDS011;25036;53.638;10.134;2023-08-06T03:39:29;2.57;;;2.17;;
39322;SDS011;25036;53.638;10.134;2023-08-06T03:40:29;2.57;;;2.30;;
39322;SDS011;25036;53.638;10.134;2023-08-06T03:41:29;3.53;;;2.47;;
39322;SDS011;25036;53.638;10.134;2023-08-06T03:42:29;3.53;;;2.35;;
39322;SDS011;25036;53.638;10.134;2023-08-06T03:43:29;2.67;;;2.47;;
39322;SDS011;25036;53.638;10.134;2023-08-06T03:44:30;3.28;;;2.55;;
39322;SDS011;25036;53.638;10.134;2023-08-06T03:45:30;4.70;;;2.50;;
39322;SDS011;25036;53.638;10.134;2023-08-06T03:46:31;2.83;;;2.25;;
39322;SDS011;25036;53.638;10.134;2023-08-06T03:47:34;3.53;;;2.42;;
39322;SDS011;25036;53.638;10.134;2023-08-06T03:48:34;3.15;;;2.67;;
39322;SDS011;25036;53.638;10.134;2023-08-06T03:49:34;5.03;;;2.87;;
39322;SDS011;25036;53.638;10.134;2023-08-06T03:50:34;6.22;;;2.28;;
39322;SDS011;25036;53.638;10.134;2023-08-06T03:51:35;2.92;;;2.17;;
39322;SDS011;25036;53.638;10.134;2023-08-06T03:52:35;4.33;;;2.60;;
39322;SDS011;25036;53.638;10.134;2023-08-06T03:53:35;2.67;;;2.43;;
39322;SDS011;25036;53.638;10.134;2023-08-06T03:54:35;3.93;;;2.40;;
39322;SDS011;25036;53.638;10.134;2023-08-06T03:55:35;2.40;;;2.20;;
39322;SDS011;25036;53.638;10.134;2023-08-06T03:56:35;7.40;;;2.40;;
39322;SDS011;25036;53.638;10.134;2023-08-06T03:57:35;2.60;;;2.40;;
39322;SDS011;25036;53.638;10.134;2023-08-06T03:58:36;4.37;;;2.40;;
39322;SDS011;25036;53.638;10.134;2023-08-06T03:59:36;6.27;;;2.50;;
39322;SDS011;25036;53.638;10.134;2023-08-06T04:00:36;4.50;;;2.77;;
39322;SDS011;25036;53.638;10.134;2023-08-06T04:01:36;2.67;;;2.35;;
39322;SDS011;25036;53.638;10.134;2023-08-06T04:02:36;4.47;;;2.35;;
39322;SDS011;25036;53.638;10.134;2023-08-06T04:03:37;2.60;;;2.20;;
39322;SDS011;25036;53.638;10.134;2023-08-06T04:04:37;4.50;;;2.28;;
39322;SDS011;25036;53.638;10.134;2023-08-06T04:05:37;3.25;;;2.67;;
39322;SDS011;25036;53.638;10.134;2023-08-06T04:06:37;5.73;;;2.57;;
39322;SDS011;25036;53.638;10.134;2023-08-06T04:07:37;5.87;;;2.30;;
39322;SDS011;25036;53.638;10.134;2023-08-06T04:08:38;4.33;;;2.73;;
39322;SDS011;25036;53.638;10.134;2023-08-06T04:10:57;3.55;;;2.30;;
39322;SDS011;25036;53.638;10.134;2023-08-06T04:11:57;6.63;;;2.63;;
39322;SDS011;25036;53.638;10.134;2023-08-06T04:12:58;6.57;;;2.38;;
39322;SDS011;25036;53.638;10.134;2023-08-06T04:13:58;4.23;;;2.30;;
39322;SDS011;25036;53.638;10.134;2023-08-06T04:14:59;5.07;;;2.80;;
39322;SDS011;25036;53.638;10.134;2023-08-06T04:16:02;5.57;;;2.50;;
39322;SDS011;25036;53.638;10.134;2023-08-06T04:17:03;3.38;;;2.20;;
39322;SDS011;25036;53.638;10.134;2023-08-06T04:18:03;3.35;;;2.60;;
39322;SDS011;25036;53.638;10.134;2023-08-06T04:19:03;3.63;;;2.33;;
39322;SDS011;25036;53.638;10.134;2023-08-06T04:20:03;4.30;;;2.50;;
39322;SDS011;25036;53.638;10.134;2023-08-06T04:21:03;4.32;;;2.67;;
39322;SDS011;25036;53.638;10.134;2023-08-06T04:22:04;3.70;;;2.80;;
39322;SDS011;25036;53.638;10.134;2023-08-06T04:23:05;3.63;;;2.50;;
39322;SDS011;25036;53.638;10.134;2023-08-06T04:24:06;3.83;;;2.53;;
39322;SDS011;25036;53.638;10.134;2023-08-06T04:25:06;5.07;;;2.30;;
39322;SDS011;25036;53.638;10.134;2023-08-06T04:26:06;5.65;;;2.50;;
39322;SDS011;25036;53.638;10.134;2023-08-06T04:27:06;5.20;;;2.53;;
39322;SDS011;25036;53.638;10.134;2023-08-06T04:28:07;3.53;;;2.50;;
39322;SDS011;25036;53.638;10.134;2023-08-06T04:29:07;3.10;;;2.65;;
39322;SDS011;25036;53.638;10.134;2023-08-06T04:30:07;3.83;;;2.53;;
39322;SDS011;25036;53.638;10.134;2023-08-06T04:31:07;3.72;;;2.88;;
39322;SDS011;25036;53.638;10.134;2023-08-06T04:32:08;3.35;;;2.40;;
39322;SDS011;25036;53.638;10.134;2023-08-06T04:33:08;7.25;;;2.60;;
39322;SDS011;25036;53.638;10.134;2023-08-06T04:34:09;6.27;;;2.73;;
39322;SDS011;25036;53.638;10.134;2023-08-06T04:35:09;6.83;;;2.50;;
39322;SDS011;25036;53.638;10.134;2023-08-06T04:36:09;3.50;;;2.60;;
39322;SDS011;25036;53.638;10.134;2023-08-06T04:37:09;6.28;;;3.08;;
39322;SDS011;25036;53.638;10.134;2023-08-06T04:38:09;5.33;;;3.10;;
39322;SDS011;25036;53.638;10.134;2023-08-06T04:39:09;3.63;;;2.58;;
39322;SDS011;25036;53.638;10.134;2023-08-06T04:40:10;4.50;;;2.30;;
39322;SDS011;25036;53.638;10.134;2023-08-06T04:41:10;4.85;;;2.80;;
39322;SDS011;25036;53.638;10.134;2023-08-06T04:42:10;5.10;;;3.20;;
39322;SDS011;25036;53.638;10.134;2023-08-06T04:43:10;3.27;;;2.60;;
39322;SDS011;25036;53.638;10.134;2023-08-06T04:44:11;5.07;;;2.23;;
39322;SDS011;25036;53.638;10.134;2023-08-06T04:45:11;4.03;;;2.60;;
39322;SDS011;25036;53.638;10.134;2023-08-06T04:46:11;4.50;;;2.40;;
39322;SDS011;25036;53.638;10.134;2023-08-06T04:47:11;4.53;;;2.90;;
39322;SDS011;25036;53.638;10.134;2023-08-06T04:48:11;5.95;;;2.70;;
39322;SDS011;25036;53.638;10.134;2023-08-06T04:49:12;5.83;;;2.90;;
39322;SDS011;25036;53.638;10.134;2023-08-06T04:50:12;5.20;;;2.90;;
39322;SDS011;25036;53.638;10.134;2023-08-06T04:51:12;3.60;;;2.70;;
39322;SDS011;25036;53.638;10.134;2023-08-06T04:52:12;4.85;;;2.55;;
39322;SDS011;25036;53.638;10.134;2023-08-06T04:53:12;5.32;;;2.42;;
39322;SDS011;25036;53.638;10.134;2023-08-06T04:54:12;3.73;;;2.23;;
39322;SDS011;25036;53.638;10.134;2023-08-06T04:55:12;4.77;;;3.07;;
39322;SDS011;25036;53.638;10.134;2023-08-06T04:56:13;4.43;;;2.30;;
39322;SDS011;25036;53.638;10.134;2023-08-06T04:57:13;3.55;;;2.53;;
39322;SDS011;25036;53.638;10.134;2023-08-06T04:58:13;4.43;;;2.80;;
39322;SDS011;25036;53.638;10.134;2023-08-06T04:59:13;3.88;;;2.90;;
39322;SDS011;25036;53.638;10.134;2023-08-06T05:00:13;5.07;;;2.60;;
39322;SDS011;25036;53.638;10.134;2023-08-06T05:01:14;3.50;;;2.80;;
39322;SDS011;25036;53.638;10.134;2023-08-06T05:02:14;6.13;;;2.65;;
39322;SDS011;25036;53.638;10.134;2023-08-06T05:03:14;4.10;;;2.70;;
39322;SDS011;25036;53.638;10.134;2023-08-06T05:04:14;3.67;;;2.90;;
39322;SDS011;25036;53.638;10.134;2023-08-06T05:05:14;6.03;;;2.80;;
39322;SDS011;25036;53.638;10.134;2023-08-06T05:06:14;4.67;;;2.80;;
39322;SDS011;25036;53.638;10.134;2023-08-06T05:07:14;4.67;;;2.63;;
39322;SDS011;25036;53.638;10.134;2023-08-06T05:08:15;6.87;;;2.90;;
39322;SDS011;25036;53.638;10.134;2023-08-06T05:09:18;4.28;;;2.85;;
39322;SDS011;25036;53.638;10.134;2023-08-06T05:10:18;3.60;;;2.83;;
39322;SDS011;25036;53.638;10.134;2023-08-06T05:11:18;3.47;;;2.77;;
39322;SDS011;25036;53.638;10.134;2023-08-06T05:12:18;3.30;;;2.73;;
39322;SDS011;25036;53.638;10.134;2023-08-06T05:13:18;3.90;;;2.63;;
39322;SDS011;25036;53.638;10.134;2023-08-06T05:14:19;4.07;;;2.77;;
39322;SDS011;25036;53.638;10.134;2023-08-06T05:15:19;5.07;;;2.43;;
39322;SDS011;25036;53.638;10.134;2023-08-06T05:16:19;3.83;;;2.75;;
39322;SDS011;25036;53.638;10.134;2023-08-06T05:17:19;3.63;;;2.83;;
39322;SDS011;25036;53.638;10.134;2023-08-06T05:18:19;5.13;;;3.00;;
39322;SDS011;25036;53.638;10.134;2023-08-06T05:19:20;4.63;;;2.40;;
39322;SDS011;25036;53.638;10.134;2023-08-06T05:20:20;8.30;;;3.10;;
39322;SDS011;25036;53.638;10.134;2023-08-06T05:21:20;5.18;;;2.65;;
39322;SDS011;25036;53.638;10.134;2023-08-06T05:22:20;3.13;;;2.50;;
39322;SDS011;25036;53.638;10.134;2023-08-06T05:23:20;3.72;;;3.13;;
39322;SDS011;25036;53.638;10.134;2023-08-06T05:24:21;3.23;;;2.93;;
39322;SDS011;25036;53.638;10.134;2023-08-06T05:25:21;4.17;;;2.90;;
39322;SDS011;25036;53.638;10.134;2023-08-06T05:26:21;4.03;;;2.72;;
39322;SDS011;25036;53.638;10.134;2023-08-06T05:27:21;7.32;;;3.30;;
39322;SDS011;25036;53.638;10.134;2023-08-06T05:28:21;5.23;;;3.00;;
39322;SDS011;25036;53.638;10.134;2023-08-06T05:29:21;4.00;;;2.50;;
39322;SDS011;25036;53.638;10.134;2023-08-06T05:30:21;4.77;;;2.77;;
39322;SDS011;25036;53.638;10.134;2023-08-06T05:31:22;5.57;;;2.67;;
39322;SDS011;25036;53.638;10.134;2023-08-06T05:32:22;3.50;;;2.63;;
39322;SDS011;25036;53.638;10.134;2023-08-06T05:33:22;4.43;;;2.85;;
39322;SDS011;25036;53.638;10.134;2023-08-06T05:34:22;5.20;;;2.80;;
39322;SDS011;25036;53.638;10.134;2023-08-06T05:35:22;5.10;;;2.90;;
39322;SDS011;25036;53.638;10.134;2023-08-06T05:36:23;6.05;;;2.95;;
39322;SDS011;25036;53.638;10.134;2023-08-06T05:37:23;4.83;;;2.73;;
39322;SDS011;25036;53.638;10.134;2023-08-06T05:38:23;5.53;;;3.20;;
39322;SDS011;25036;53.638;10.134;2023-08-06T05:39:23;8.00;;;3.08;;
39322;SDS011;25036;53.638;10.134;2023-08-06T05:40:23;3.77;;;2.90;;
39322;SDS011;25036;53.638;10.134;2023-08-06T05:41:25;4.30;;;3.22;;
39322;SDS011;25036;53.638;10.134;2023-08-06T05:42:25;3.65;;;2.83;;
39322;SDS011;25036;53.638;10.134;2023-08-06T05:43:25;6.27;;;3.10;;
39322;SDS011;25036;53.638;10.134;2023-08-06T05:44:25;3.43;;;2.80;;
39322;SDS011;25036;53.638;10.134;2023-08-06T05:45:25;4.17;;;3.40;;
39322;SDS011;25036;53.638;10.134;2023-08-06T05:46:25;4.60;;;3.00;;
39322;SDS011;25036;53.638;10.134;2023-08-06T05:47:26;4.07;;;2.97;;
39322;SDS011;25036;53.638;10.134;2023-08-06T05:48:26;5.97;;;3.25;;
39322;SDS011;25036;53.638;10.134;2023-08-06T05:49:27;4.22;;;2.92;;
39322;SDS011;25036;53.638;10.134;2023-08-06T05:50:28;4.57;;;3.40;;
39322;SDS011;25036;53.638;10.134;2023-08-06T05:51:28;7.88;;;3.05;;
39322;SDS011;25036;53.638;10.134;2023-08-06T05:52:28;4.47;;;2.93;;
39322;SDS011;25036;53.638;10.134;2023-08-06T05:53:28;3.47;;;2.93;;
39322;SDS011;25036;53.638;10.134;2023-08-06T05:54:28;6.73;;;3.13;;
39322;SDS011;25036;53.638;10.134;2023-08-06T05:55:28;6.07;;;3.40;;
39322;SDS011;25036;53.638;10.134;2023-08-06T05:56:28;5.10;;;3.10;;
39322;SDS011;25036;53.638;10.134;2023-08-06T05:57:29;4.87;;;3.27;;
39322;SDS011;25036;53.638;10.134;2023-08-06T05:58:29;4.13;;;3.00;;
39322;SDS011;25036;53.638;10.134;2023-08-06T05:59:30;5.68;;;2.88;;
39322;SDS011;25036;53.638;10.134;2023-08-06T06:00:30;3.83;;;3.00;;
39322;SDS011;25036;53.638;10.134;2023-08-06T06:01:30;6.23;;;2.67;;
39322;SDS011;25036;53.638;10.134;2023-08-06T06:02:30;4.57;;;3.13;;